Burlington, IA (52601)

4:21 PM CST on February 14, 2016 (GMT -0600)
Burlington, IA | | Change Station
CLOSE
Current Station
Personal Weather Station
Location: Burlington, IA
Elevation: 702 ft
Nearby Weather Stations
Active Advisory: Winter Weather Advisory Active Notice: Local Storm Report

Elev 702 ft 40.80 °N, 91.12 °W | Updated 11 minutes ago

Overcast
Overcast
19.7 °F
Feels Like 14 °F
N
3.7
Wind Variable Wind from SE

Today
High -- | Low -- °F
--% Chance of Precip.
Yesterday
High -- | Low -- °F
Precip. -- in
Pressure 29.99 in
Visibility 3.0 miles
Clouds Overcast 900 ft
Windchill 14 °F
Dew Point 20 °F
Humidity 99%
Rainfall 0.00 in
Snow Depth Not available.
7:00 AM 5:37 PM
Waxing Crescent, 46% visible
METAR KBRL 142153Z AUTO 15009KT 3SM BR OVC009 M07/M07 A2995 RMK AO2 CIG 005V013 SLP153 I1003 T10671072
Pressure 29.99 in
Visibility 3.0 miles
Clouds Overcast 900 ft
Windchill 14 °F
Dew Point 20 °F
Humidity 99%
Rainfall 0.00 in
Snow Depth Not available.
7:00 AM 5:37 PM
Waxing Crescent, 46% visible
METAR KBRL 142153Z AUTO 15009KT 3SM BR OVC009 M07/M07 A2995 RMK AO2 CIG 005V013 SLP153 I1003 T10671072

10-Day Weather Forecast

Almanac

Astronomy

Feb. 14, 2016 Rise Set
Actual Time
Civil Twilight
Nautical Twilight
Astronomical Twilight
Moon
Length of Visible Light
Length of Day
Tomorrow will be .
, % of the Moon is Illuminated

Today's Extremes

State Highs State Lows

Community

WunderPhotos

Upload Photos

1,892,893 photos uploaded!

WunderBlog® & News

Nearby

Air Quality

  Air Quality AQ Index Pollutant
Not available.

Snow Depth

Station Depth Elevation

Earthquake Activity

City Distance Mag. Time & Date
Minimum magnitude displayed is 2.5.

Coastal Water Temperatures

Place Temperature

Stations

Nearby Weather Stations

Station Location Temp. Windchill Dew Point Humidity Wind Precip. Elev Updated Type
                   

Watches & Warnings

Winter Weather Advisory
Issued: 2:56 PM CST Feb. 14, 2016 – National Weather Service

... Winter Weather Advisory remains in effect until 6 PM CST this
evening...

* timing... through much of the day... diminishing by late afternoon.

* Snow accumulations... 2 to 5 inches.

* Wind... southeast 10 to 15 mph with gusts up to 20 mph.

* Visibilities... less than a mile in the heavier snow at times.

* Impacts... snow covered and hazardous roads and low visibility
in heavier snowfall. Drifting snow possible this morning.

Precautionary/preparedness actions...

A Winter Weather Advisory for snow means that periods of snow
will cause travel difficulties. Be prepared for slick... snow
covered roads and limited visibilities... and be careful while
driving.